Terminal Aerodrome Forecast
Issued by NWS Albany, NY

Home | Current Version | Previous Version | Text Only | Print | Product List | Glossary On
Versions: 1 2 3 4 5 6 7 8 9 10 11 12 13 14 15 16 17
266
FTUS41 KALY 142337
TAFPOU
TAF
KPOU 142337Z 1500/1524 VRB03KT P6SM SKC
     FM150200 00000KT P6SM SKC
     FM151100 00000KT P6SM BKN150
     FM151400 14004KT P6SM BKN050 OVC100
     FM151700 16006KT 5SM -SN BR SCT015 OVC030
     FM152000 17008KT 2SM -SN BR OVC015=

USA.gov is the U.S. government's official web portal to all federal, state and local government web resources and services.